Raleigh Durham International Airport
KRDU : now visible

Airfield :











YOU CAN JOIN US ON...

 
LOGIN :

Register | Disclaimer

   EN    FR    IT 

 









Legend :    VFR   Marginal VFR   IFR   Intensive IFR   Very Intensive IFR
Visi :
Ceiling :
>= 8 km
>= 3000ft
5 to 8 km
1000 to 3000 ft
1500m to 5 km
500 to 1000 ft
800 to 1500m
200 to 500 ft
< 800m
< 200 ft
Symbols :   Thunderstorms  Fog  Heavy snow  Heavy precipitations  Wind > 20 kt







- Airport Elevation : 435 ft
- IATA code : RDU


KRDU - Raleigh Durham International

CURRENT METAR :
  • 192151Z 06005KT 10SM OVC120 06/M02 A3054 RMK AO2 SLP346 T00561017

EXPIRED METARs :
  • 192051Z 05006KT 10SM OVC120 06/M02 A3053 RMK AO2 SLP339 T00611022 55005
  • 191951Z 10006KT 10SM BKN120 OVC140 06/M03 A3051 RMK AO2 SLP335 T00611028

TAF KRDU
Valid from the 19 at 18:00 until the 20 at 18:00 UTC


191727Z 1918/2018 06008KT P6SM OVC100
FM192300 08004KT P6SM -RA OVC050
FM200300 05005KT 5SM -RA BR OVC015
FM201000 05006KT 3SM -RA BR OVC007
TEMPO 2010/2014 1SM -FZRA BR OVC004
FM201500 08006KT 1 1/2SM -RA BR OVC003
KZDC FIR / North America



MET'MAP, your aeronautical weather chart ! - Copyright ORBIFLY December 2007 - Disclaimer

ORBIFLY MET'MAP TEAM :

Programming & Development : Alexandra Zaïnal
Concept & Development : Baudouin d'Aumeries
Co-Development & Prog : Marc-Olivier Méhu
Technical & hardware support : Manuel Goepfert

Contact : metmap@orbifly.com




SOURCES & CREDITS :

   NOAA       Earth
Advisory